Other Surface Observations
Issued by NWS

Home | Current Version | Previous Version | Text Only | Print | Product List | Glossary On
Versions: 1 2 3 4 5 6 7 8 9 10 11 12 13 14 15 16 17 18 19 20 21 22 23 24 25 26 27 28 29 30 31 32 33 34 35 36 37 38 39 40 41 42 43 44 45 46 47 48 49 50
000
SXAK55 KWBC 171509
OSOAK
:SHEF ENCODED 6-MINUTE NOS MET DATA
:NATIONAL WATER LEVEL OBSERVATION NETWORK (NWLON)
:TA(AIR TEMP DEG F)  SLP(SEA LEVEL PRESSURE INCHES)
:UD(WIND DIRECTION WHOLE DEGREES) US (WIND SPEED MPH)
:TW(WATER TEMP DEG F) UG(WIND GUSTS MPH) WC(CONDUCTIVITY uMHOS/CM)
:-9999 (MISSING VALUES)
:PROVIDED BY DOC/NOAA/NOS/CO-OPS, (301) 713-2540
:corms@noaa.gov
.E KECA2 20190817 Z DH1442/TAIRG/DIN06/   61/   61/   61
.E KECA2 20190817 Z DH1442/PLIRG/DIN06/29.88/29.88/29.88
.E KECA2 20190817 Z DH1442/USIRG/DIN06/    0/    0/    1
.E KECA2 20190817 Z DH1442/UDIRG/DIN06/   13/  215/  131
.E KECA2 20190817 Z DH1442/UGIRG/DIN06/    1/    0/    2
.E KECA2 20190817 Z DH1442/TWIRG/DIN06/   60/   60/   59
.E PLXA2 20190817 Z DH1442/TAIRG/DIN06/   59/   59
.E PLXA2 20190817 Z DH1442/PLIRG/DIN06/29.84/29.84
.E PLXA2 20190817 Z DH1442/USIRG/DIN06/    5/    8
.E PLXA2 20190817 Z DH1442/UDIRG/DIN06/  263/  254
.E PLXA2 20190817 Z DH1442/UGIRG/DIN06/   10/   12
.E PLXA2 20190817 Z DH1442/TWIRG/DIN06/   55/   55
.A ITKA2 20190817 Z DH1448/TAIRG    59/UGIRG -9999/PLIRG 29.83/UDIRG -9999/USIRG -9999/TWIRG    60/WCIRG -9999
.A JNEA2 20190817 Z DH1448/TAIRG    55/UGIRG     8/PLIRG 29.80/UDIRG   119/USIRG     6/TWIRG    53/WCIRG -9999
.E SKTA2 20190817 Z DH1442/TAIRG/DIN06/   55/   55
.E SKTA2 20190817 Z DH1442/PLIRG/DIN06/29.85/29.85
.E SKTA2 20190817 Z DH1442/TWIRG/DIN06/   54/   54
.A ELFA2 20190817 Z DH1448/TAIRG    55/UGIRG -9999/PLIRG 29.81/UDIRG -9999/USIRG -9999/TWIRG    51/WCIRG -9999
.E YATA2 20190817 Z DH1448/PLIRG/DIN06/29.80/29.80
.E YATA2 20190817 Z DH1448/TWIRG/DIN06/   61/   61
.E CRVA2 20190817 Z DH1448/TAIRG/DIN06/   64/   63
.E CRVA2 20190817 Z DH1448/PLIRG/DIN06/29.88/29.88
.E CRVA2 20190817 Z DH1448/USIRG/DIN06/   24/   21
.E CRVA2 20190817 Z DH1448/UDIRG/DIN06/  351/  344
.E CRVA2 20190817 Z DH1448/UGIRG/DIN06/   32/   32
.E CRVA2 20190817 Z DH1448/TWIRG/DIN06/   56/   56
.E VDZA2 20190817 Z DH1448/TAIRG/DIN06/   61/   61
.E VDZA2 20190817 Z DH1448/PLIRG/DIN06/30.03/30.04
.E VDZA2 20190817 Z DH1448/USIRG/DIN06/    5/    8
.E VDZA2 20190817 Z DH1448/UDIRG/DIN06/  360/   76
.E VDZA2 20190817 Z DH1448/UGIRG/DIN06/   10/   19
.E VDZA2 20190817 Z DH1448/TWIRG/DIN06/   55/   55
.E SWLA2 20190817 Z DH1442/PLIRG/DIN06/29.99/29.98
.E SWLA2 20190817 Z DH1442/TWIRG/DIN06/   60/   60
.E NKTA2 20190817 Z DH1442/TAIRG/DIN06/   63/   63
.E NKTA2 20190817 Z DH1442/PLIRG/DIN06/30.17/30.17
.E NKTA2 20190817 Z DH1442/USIRG/DIN06/   16/   15
.E NKTA2 20190817 Z DH1442/UDIRG/DIN06/   34/   29
.E NKTA2 20190817 Z DH1442/UGIRG/DIN06/   24/   25
.E NKTA2 20190817 Z DH1442/TWIRG/DIN06/   60/   60
.E ANTA2 20190817 Z DH1442/TAIRG/DIN06/   56/   57
.E ANTA2 20190817 Z DH1442/PLIRG/DIN06/30.14/30.14
.E ANTA2 20190817 Z DH1442/USIRG/DIN06/    2/    2
.E ANTA2 20190817 Z DH1442/UDIRG/DIN06/  347/  337
.E ANTA2 20190817 Z DH1442/UGIRG/DIN06/    6/    4
.E ANTA2 20190817 Z DH1442/TWIRG/DIN06/   60/   60
.E KDAA2 20190817 Z DH1442/TAIRG/DIN06/   72/   72
.E KDAA2 20190817 Z DH1442/PLIRG/DIN06/30.11/30.11
.E KDAA2 20190817 Z DH1442/USIRG/DIN06/   19/   16
.E KDAA2 20190817 Z DH1442/UDIRG/DIN06/  253/  267
.E KDAA2 20190817 Z DH1442/UGIRG/DIN06/   46/   34
.E KDAA2 20190817 Z DH1442/TWIRG/DIN06/   64/   64
.E ALIA2 20190817 Z DH1448/TAIRG/DIN06/   58/   58
.E ALIA2 20190817 Z DH1448/PLIRG/DIN06/30.18/30.18
.E ALIA2 20190817 Z DH1448/USIRG/DIN06/   23/   17
.E ALIA2 20190817 Z DH1448/UDIRG/DIN06/  320/  318
.E ALIA2 20190817 Z DH1448/UGIRG/DIN06/   31/   26
.E ALIA2 20190817 Z DH1448/TWIRG/DIN06/   56/   56
.A SNDA2 20190817 Z DH1448/TAIRG    59/UGIRG    14/PLIRG 30.38/UDIRG   342/USIRG    11/TWIRG    55/WCIRG -9999
.E KGCA2 20190817 Z DH1448/TAIRG/DIN06/   51/   52
.E KGCA2 20190817 Z DH1448/PLIRG/DIN06/30.40/30.40
.E KGCA2 20190817 Z DH1448/USIRG/DIN06/    0/    0
.E KGCA2 20190817 Z DH1448/UDIRG/DIN06/  311/  311
.E KGCA2 20190817 Z DH1448/UGIRG/DIN06/    2/    0
.E KGCA2 20190817 Z DH1448/TWIRG/DIN06/   52/   52
.A ADKA2 20190817 Z DH1448/TAIRG    55/UGIRG    29/PLIRG 30.15/UDIRG   130/USIRG    23/TWIRG    49/WCIRG -9999
.A ATKA2 20190817 Z DH1448/TAIRG    54/UGIRG -9999/PLIRG 30.30/UDIRG -9999/USIRG -9999/TWIRG    49/WCIRG -9999
.A OLSA2 20190817 Z DH1448/TAIRG    51/UGIRG     2/PLIRG 30.45/UDIRG   333/USIRG     0/TWIRG -9999/WCIRG -9999
.A UNLA2 20190817 Z DH1448/TAIRG    50/UGIRG     5/PLIRG 30.47/UDIRG   269/USIRG     5/TWIRG    51/WCIRG -9999
.E NMTA2 20190817 Z DH1442/TAIRG/DIN06/   46/   45/   45
.E NMTA2 20190817 Z DH1442/PLIRG/DIN06/30.63/30.63/30.63
.E NMTA2 20190817 Z DH1442/USIRG/DIN06/    5/    0/    4
.E NMTA2 20190817 Z DH1442/UDIRG/DIN06/    0/   98/    9
.E NMTA2 20190817 Z DH1442/UGIRG/DIN06/    7/    5/    5
.A RDDA2 20190817 Z DH1448/TAIRG    45/UGIRG     7/PLIRG 30.67/UDIRG   354/USIRG     2/TWIRG    55/WCIRG -9999
.E PRDA2 20190817 Z DH1436/TAIRG/DIN06/   41/   41/   41
.E PRDA2 20190817 Z DH1436/PLIRG/DIN06/30.63/30.63/30.63
.E PRDA2 20190817 Z DH1436/USIRG/DIN06/   19/   22/   23
.E PRDA2 20190817 Z DH1436/UDIRG/DIN06/  311/  303/  305
.E PRDA2 20190817 Z DH1436/UGIRG/DIN06/   24/   24/   24
.E PRDA2 20190817 Z DH1436/TWIRG/DIN06/   48/   48/   48



USA.gov is the U.S. government's official web portal to all federal, state and local government web resources and services.